Terminal Aerodrome Forecast
Issued by NWS Sterling, VA

Current Version | Previous Version | Graphics & Text | Print | Product List | Glossary On
Versions: 1 2 3 4 5 6 7 8 9 10 11 12
000
FTUS41 KLWX 161100
TAFMRB
TAF
KMRB 161139Z 1612/1712 32004KT P6SM BKN070
     FM161400 33008G16KT P6SM SCT050
     FM162000 34007KT P6SM FEW050
     FM162300 VRB03KT P6SM FEW050=

USA.gov is the U.S. government's official web portal to all federal, state and local government web resources and services.